createdAt,value
2022-11-03T00:02:20.372Z,7.30
2022-11-03T00:04:48.827Z,6.70
2022-11-03T00:07:23.426Z,8.10
2022-11-03T00:09:51.794Z,6.50
2022-11-03T00:12:20.129Z,7.50
2022-11-03T00:14:48.596Z,7.10
2022-11-03T00:17:16.892Z,7.50
2022-11-03T00:19:45.259Z,7.30
2022-11-03T00:22:13.598Z,6.50
2022-11-03T00:24:41.944Z,6.30
2022-11-03T00:27:10.234Z,8.30
2022-11-03T00:29:38.529Z,7.00
2022-11-03T00:32:06.850Z,8.30
2022-11-03T00:34:35.130Z,7.20
2022-11-03T00:37:03.469Z,8.00
2022-11-03T00:39:31.810Z,8.70
2022-11-03T00:42:00.246Z,7.80
2022-11-03T00:44:28.539Z,7.50
2022-11-03T00:46:57.054Z,7.60
2022-11-03T00:49:25.377Z,7.30
2022-11-03T00:51:53.731Z,7.60
2022-11-03T00:54:22.045Z,8.20
2022-11-03T00:56:50.358Z,9.30
2022-11-03T00:59:18.640Z,8.30
2022-11-03T01:01:47.976Z,8.10
2022-11-03T01:04:36.425Z,8.50
2022-11-03T01:07:06.398Z,10.10
2022-11-03T01:09:39.809Z,7.30
2022-11-03T01:12:18.461Z,7.30
2022-11-03T01:14:50.843Z,7.50
2022-11-03T01:17:25.825Z,8.40
2022-11-03T01:19:55.240Z,8.70
2022-11-03T01:22:24.555Z,9.80
2022-11-03T01:24:52.934Z,9.10
2022-11-03T01:27:23.186Z,10.50
2022-11-03T01:29:51.564Z,9.40
2022-11-03T01:32:19.957Z,9.20
2022-11-03T01:34:48.337Z,8.20
2022-11-03T01:37:16.723Z,8.70
2022-11-03T01:39:44.958Z,9.10
2022-11-03T01:42:14.582Z,8.10
2022-11-03T01:44:48.992Z,8.10
2022-11-03T01:47:26.905Z,7.10
2022-11-03T01:50:13.108Z,8.10
2022-11-03T01:52:49.103Z,8.70
2022-11-03T01:55:24.334Z,8.30
2022-11-03T01:58:18.867Z,8.60
2022-11-03T02:00:52.476Z,8.80
2022-11-03T02:03:23.118Z,8.50
2022-11-03T02:05:52.866Z,8.90
2022-11-03T02:08:40.325Z,9.50
2022-11-03T02:11:27.519Z,8.80
2022-11-03T02:13:55.857Z,7.70
2022-11-03T02:16:26.748Z,8.30
2022-11-03T02:18:56.716Z,9.40
2022-11-03T02:21:46.698Z,8.50
2022-11-03T02:24:54.297Z,8.30
2022-11-03T02:27:23.163Z,8.50
2022-11-03T02:29:51.651Z,9.00
2022-11-03T02:32:26.813Z,8.20
2022-11-03T02:35:12.884Z,9.00
2022-11-03T02:37:46.037Z,7.90
2022-11-03T02:40:22.167Z,8.60
2022-11-03T02:42:53.645Z,8.20
2022-11-03T02:45:25.178Z,7.80
2022-11-03T02:47:58.779Z,8.40
2022-11-03T02:50:33.593Z,8.40
2022-11-03T02:53:01.932Z,8.30
2022-11-03T02:55:39.394Z,8.40
2022-11-03T02:58:21.010Z,8.40
2022-11-03T03:00:55.040Z,7.80
2022-11-03T03:03:37.640Z,7.80
2022-11-03T03:06:12.060Z,7.50
2022-11-03T03:08:47.764Z,8.30
2022-11-03T03:11:16.294Z,8.30
2022-11-03T03:13:45.598Z,8.00
2022-11-03T03:16:27.125Z,8.40
2022-11-03T03:19:11.365Z,7.50
2022-11-03T03:21:45.789Z,8.40
2022-11-03T03:24:40.475Z,8.30
2022-11-03T03:27:12.035Z,7.80
2022-11-03T03:29:49.287Z,9.40
2022-11-03T03:32:22.182Z,8.30
2022-11-03T03:34:53.243Z,8.20
2022-11-03T03:37:26.732Z,8.80
2022-11-03T03:40:00.676Z,6.90
2022-11-03T03:42:31.101Z,7.10
2022-11-03T03:45:00.775Z,6.70
2022-11-03T03:47:32.372Z,7.80
2022-11-03T03:50:01.860Z,7.30
2022-11-03T03:52:30.823Z,6.70
2022-11-03T03:54:59.425Z,8.70
2022-11-03T03:57:31.397Z,7.60
2022-11-03T03:59:59.725Z,7.70
2022-11-03T04:02:28.158Z,6.30
2022-11-03T04:04:58.466Z,7.30
2022-11-03T04:07:45.500Z,6.20
2022-11-03T04:10:16.064Z,6.70
2022-11-03T04:13:03.986Z,7.10
2022-11-03T04:15:51.451Z,6.20
2022-11-03T04:18:40.962Z,7.30
2022-11-03T04:21:31.693Z,7.80
2022-11-03T04:24:00.935Z,6.40
2022-11-03T04:26:29.866Z,7.50
2022-11-03T04:28:58.722Z,6.80
2022-11-03T04:31:29.135Z,7.20
2022-11-03T04:33:57.502Z,7.90
2022-11-03T04:36:26.465Z,7.30
2022-11-03T04:38:55.017Z,7.40
2022-11-03T04:41:29.194Z,6.60
2022-11-03T04:43:57.784Z,7.50
2022-11-03T04:46:29.281Z,6.30
2022-11-03T04:49:00.938Z,7.20
2022-11-03T04:51:34.518Z,7.40
2022-11-03T04:54:13.449Z,6.30
2022-11-03T04:56:41.901Z,7.50
2022-11-03T04:59:16.158Z,6.50
2022-11-03T05:01:46.242Z,7.90
2022-11-03T05:04:18.106Z,7.00
2022-11-03T05:06:55.546Z,6.30
2022-11-03T05:09:29.168Z,7.80
2022-11-03T05:11:57.657Z,8.10
2022-11-03T05:14:32.125Z,6.50
2022-11-03T05:17:01.757Z,8.10
2022-11-03T05:19:42.970Z,6.00
2022-11-03T05:22:22.122Z,6.50
2022-11-03T05:25:00.455Z,7.20
2022-11-03T05:27:29.328Z,7.40
2022-11-03T05:30:01.019Z,7.20
2022-11-03T05:32:34.307Z,8.40
2022-11-03T05:35:04.206Z,8.00
2022-11-03T05:37:35.300Z,7.10
2022-11-03T05:40:15.930Z,8.10
2022-11-03T05:42:47.239Z,6.60
2022-11-03T05:45:32.634Z,7.40
2022-11-03T05:48:03.930Z,9.30
2022-11-03T05:50:35.931Z,11.50
2022-11-03T05:53:21.312Z,7.50
2022-11-03T05:55:49.608Z,8.50
2022-11-03T05:58:27.679Z,8.20
2022-11-03T06:00:57.715Z,8.30
2022-11-03T06:03:29.950Z,7.80
2022-11-03T06:06:01.009Z,7.80
2022-11-03T06:08:37.915Z,8.80
2022-11-03T06:11:16.170Z,9.60
2022-11-03T06:13:44.488Z,8.40
2022-11-03T06:16:38.538Z,8.60
2022-11-03T06:19:28.369Z,7.80
2022-11-03T06:22:25.186Z,7.40
2022-11-03T06:25:02.748Z,8.70
2022-11-03T06:27:34.167Z,8.90
2022-11-03T06:30:26.555Z,9.10
2022-11-03T06:32:58.905Z,10.40
2022-11-03T06:35:27.385Z,10.30
2022-11-03T06:37:59.224Z,11.60
2022-11-03T06:40:35.935Z,8.20
2022-11-03T06:43:19.939Z,8.70
2022-11-03T06:46:01.455Z,8.40
2022-11-03T06:48:30.240Z,9.70
2022-11-03T06:50:59.963Z,9.60
2022-11-03T06:53:33.740Z,9.10
2022-11-03T06:56:02.660Z,8.60
2022-11-03T06:58:36.695Z,10.20
2022-11-03T07:01:32.441Z,10.20
2022-11-03T07:04:16.288Z,12.70
2022-11-03T07:06:51.857Z,12.40
2022-11-03T07:09:26.029Z,12.80
2022-11-03T07:11:59.073Z,14.20
2022-11-03T07:14:33.903Z,14.30
2022-11-03T07:17:11.934Z,16.00
2022-11-03T07:19:43.689Z,20.30
2022-11-03T07:22:30.245Z,18.40
2022-11-03T07:25:03.598Z,19.50
2022-11-03T07:27:37.270Z,19.10
2022-11-03T07:30:24.221Z,20.10
2022-11-03T07:32:54.601Z,18.90
2022-11-03T07:35:53.256Z,19.80
2022-11-03T07:38:22.993Z,17.80
2022-11-03T07:40:52.617Z,16.80
2022-11-03T07:43:36.025Z,17.20
2022-11-03T07:46:05.915Z,14.70
2022-11-03T07:48:43.246Z,15.00
2022-11-03T07:51:33.148Z,14.10
2022-11-03T07:54:26.139Z,13.20
2022-11-03T07:57:06.975Z,13.20
2022-11-03T07:59:42.635Z,11.20
2022-11-03T08:02:42.522Z,10.30
2022-11-03T08:05:11.030Z,9.70
2022-11-03T08:07:39.331Z,10.00
2022-11-03T08:10:08.488Z,11.60
2022-11-03T08:12:36.988Z,10.20
2022-11-03T08:15:06.138Z,10.80
2022-11-03T08:17:34.478Z,9.60
2022-11-03T08:20:03.021Z,11.00
2022-11-03T08:22:31.377Z,10.50
2022-11-03T08:24:59.854Z,9.50
2022-11-03T08:27:28.215Z,8.90
2022-11-03T08:29:56.509Z,8.60
2022-11-03T08:32:24.944Z,7.70
2022-11-03T08:34:53.265Z,8.50
2022-11-03T08:37:21.914Z,7.40
2022-11-03T08:39:50.555Z,7.10
2022-11-03T08:42:18.882Z,6.60
2022-11-03T08:44:47.189Z,6.10
2022-11-03T08:47:15.518Z,5.60
2022-11-03T08:49:43.834Z,5.40
2022-11-03T08:52:12.930Z,5.40
2022-11-03T08:54:41.233Z,6.00
2022-11-03T08:57:09.508Z,5.10
2022-11-03T08:59:38.545Z,4.70
2022-11-03T09:02:07.257Z,5.00
2022-11-03T09:04:35.549Z,6.10
2022-11-03T09:07:03.853Z,6.10
2022-11-03T09:12:20.614Z,5.00
2022-11-03T09:14:48.957Z,4.40
2022-11-03T09:17:17.404Z,4.60
2022-11-03T09:19:45.700Z,5.90
2022-11-03T09:22:14.040Z,5.10
2022-11-03T09:24:42.422Z,4.90
2022-11-03T09:27:10.876Z,6.20
2022-11-03T09:30:06.686Z,4.10
2022-11-03T09:32:27.773Z,5.10
2022-11-03T09:34:56.172Z,4.50
2022-11-03T09:37:24.569Z,3.90
2022-11-03T09:39:52.925Z,4.10
2022-11-03T09:42:21.923Z,4.40
2022-11-03T09:44:51.925Z,4.20
2022-11-03T09:47:29.420Z,4.20
2022-11-03T09:49:58.026Z,3.40
2022-11-03T09:52:26.361Z,4.40
2022-11-03T09:54:55.688Z,4.20
2022-11-03T09:57:27.875Z,3.70
2022-11-03T09:59:56.553Z,3.70
2022-11-03T10:02:32.497Z,4.60
2022-11-03T10:05:06.751Z,3.30
2022-11-03T10:07:38.904Z,3.60
2022-11-03T10:10:16.950Z,3.40
2022-11-03T10:12:46.639Z,3.10
2022-11-03T10:15:18.069Z,3.90
2022-11-03T10:17:47.095Z,4.50
2022-11-03T10:20:20.052Z,3.50
2022-11-03T10:22:53.999Z,4.00
2022-11-03T10:25:44.039Z,2.50
2022-11-03T10:28:26.780Z,3.00
2022-11-03T10:31:11.862Z,3.40
2022-11-03T10:33:52.384Z,3.30
2022-11-03T10:36:24.718Z,3.70
2022-11-03T10:38:53.533Z,3.50
2022-11-03T10:41:28.091Z,2.90
2022-11-03T10:44:11.741Z,3.10
2022-11-03T10:46:56.291Z,3.30
2022-11-03T10:49:25.038Z,3.70
2022-11-03T10:51:57.197Z,3.80
2022-11-03T10:54:25.548Z,3.00
2022-11-03T10:56:53.985Z,3.80
2022-11-03T10:59:32.837Z,3.30
2022-11-03T11:02:01.881Z,3.80
2022-11-03T11:04:32.558Z,3.30
2022-11-03T11:07:01.017Z,2.90
2022-11-03T11:09:29.429Z,3.30
2022-11-03T11:12:15.758Z,3.60
2022-11-03T11:15:02.534Z,3.30
2022-11-03T11:17:46.884Z,3.60
2022-11-03T11:20:18.580Z,3.10
2022-11-03T11:22:48.212Z,3.00
2022-11-03T11:25:19.126Z,3.40
2022-11-03T11:27:58.207Z,3.20
2022-11-03T11:30:29.986Z,3.20
2022-11-03T11:33:14.528Z,2.30
2022-11-03T11:35:42.754Z,3.40
2022-11-03T11:38:48.256Z,2.50
2022-11-03T11:41:16.578Z,2.90
2022-11-03T11:43:44.886Z,3.60
2022-11-03T11:46:22.426Z,3.50
2022-11-03T11:49:17.164Z,4.00
2022-11-03T11:51:45.913Z,3.50
2022-11-03T11:54:20.829Z,3.80
2022-11-03T11:59:25.943Z,3.40
2022-11-03T12:01:57.338Z,3.90
2022-11-03T12:04:31.432Z,3.80
2022-11-03T12:07:00.236Z,3.00
2022-11-03T12:09:28.795Z,2.80
2022-11-03T12:12:05.279Z,3.40
2022-11-03T12:14:39.100Z,3.20
2022-11-03T12:17:19.843Z,3.70
2022-11-03T12:19:50.620Z,3.10
2022-11-03T12:22:25.957Z,3.20
2022-11-03T12:24:55.775Z,3.50
2022-11-03T12:27:23.993Z,3.20
2022-11-03T12:29:54.484Z,4.70
2022-11-03T12:32:33.736Z,3.40
2022-11-03T12:35:08.156Z,3.90
2022-11-03T12:37:37.324Z,2.90
2022-11-03T12:40:06.881Z,3.50
2022-11-03T12:42:35.322Z,3.30
2022-11-03T12:45:04.239Z,9.70
2022-11-03T12:47:32.683Z,10.90
2022-11-03T12:50:00.982Z,8.20
2022-11-03T12:52:29.418Z,5.90
2022-11-03T12:54:57.683Z,3.30
2022-11-03T12:57:26.106Z,3.70
2022-11-03T12:59:54.630Z,3.60
2022-11-03T13:02:23.043Z,4.60
2022-11-03T13:04:51.477Z,5.20
2022-11-03T13:07:25.746Z,4.30
2022-11-03T13:09:57.326Z,5.10
2022-11-03T13:12:31.597Z,4.30
2022-11-03T13:15:03.333Z,4.60
2022-11-03T13:17:40.222Z,3.90
2022-11-03T13:20:17.374Z,4.90
2022-11-03T13:22:45.740Z,4.30
2022-11-03T13:25:14.346Z,3.90
2022-11-03T13:27:42.697Z,3.90
2022-11-03T13:30:12.201Z,3.90
2022-11-03T13:32:40.535Z,4.60
2022-11-03T13:35:13.767Z,4.40
2022-11-03T13:37:45.753Z,4.10
2022-11-03T13:40:42.756Z,4.80
2022-11-03T13:43:05.254Z,4.40
2022-11-03T13:45:34.312Z,5.10
2022-11-03T13:50:52.377Z,5.50
2022-11-03T13:56:13.167Z,5.50
2022-11-03T14:01:32.035Z,6.20
2022-11-03T14:06:48.672Z,5.30
2022-11-03T14:09:17.009Z,5.60
2022-11-03T14:12:03.969Z,4.20
2022-11-03T14:14:32.324Z,4.80
2022-11-03T14:17:00.676Z,4.40
2022-11-03T14:19:36.778Z,4.20
2022-11-03T14:22:10.013Z,5.30
2022-11-03T14:24:38.447Z,6.80
2022-11-03T14:27:06.977Z,6.80
2022-11-03T14:29:35.340Z,5.70
2022-11-03T14:32:03.982Z,6.30
2022-11-03T14:34:32.355Z,5.20
2022-11-03T14:37:00.882Z,5.50
2022-11-03T14:39:29.785Z,6.30
2022-11-03T14:42:04.057Z,4.40
2022-11-03T14:44:38.476Z,5.00
2022-11-03T14:47:10.814Z,4.20
2022-11-03T14:49:39.179Z,5.70
2022-11-03T14:52:07.962Z,5.70
2022-11-03T14:54:36.712Z,5.00
2022-11-03T14:57:05.613Z,5.10
2022-11-03T14:59:34.507Z,6.70
2022-11-03T15:02:03.656Z,6.40
2022-11-03T15:04:32.316Z,7.40
2022-11-03T15:07:00.742Z,7.50
2022-11-03T15:09:29.144Z,5.70
2022-11-03T15:11:57.584Z,5.40
2022-11-03T15:14:25.868Z,6.80
2022-11-03T15:16:54.187Z,6.60
2022-11-03T15:19:22.825Z,8.00
2022-11-03T15:21:51.164Z,9.50
2022-11-03T15:27:07.857Z,9.00
2022-11-03T15:29:38.617Z,7.40
2022-11-03T15:32:07.437Z,9.00
2022-11-03T15:34:35.805Z,7.00
2022-11-03T15:37:04.175Z,6.40
2022-11-03T15:39:32.644Z,7.60
2022-11-03T15:42:01.169Z,7.60
2022-11-03T15:44:29.639Z,6.70
2022-11-03T15:46:58.021Z,9.30
2022-11-03T15:49:26.418Z,7.40
2022-11-03T15:51:54.713Z,7.50
2022-11-03T15:54:23.156Z,9.60
2022-11-03T15:56:51.547Z,8.60
2022-11-03T15:59:20.048Z,9.10
2022-11-03T16:01:48.570Z,8.50
2022-11-03T16:04:17.069Z,10.10
2022-11-03T16:09:33.796Z,8.20
2022-11-03T16:12:02.872Z,7.30
2022-11-03T16:14:31.492Z,8.40
2022-11-03T16:16:59.838Z,8.30
2022-11-03T16:19:28.293Z,7.70
2022-11-03T16:21:56.658Z,7.10
2022-11-03T16:24:33.237Z,7.10
2022-11-03T16:27:04.059Z,5.40
2022-11-03T16:29:32.412Z,4.70
2022-11-03T16:32:00.712Z,6.90
2022-11-03T16:34:29.066Z,6.90
2022-11-03T16:36:57.540Z,7.60
2022-11-03T16:39:25.967Z,10.50
2022-11-03T16:41:55.112Z,8.20
2022-11-03T16:44:23.648Z,8.90
2022-11-03T16:46:52.180Z,8.30
2022-11-03T16:49:20.555Z,8.10
2022-11-03T16:51:52.217Z,7.80
2022-11-03T16:54:21.308Z,8.40
2022-11-03T16:56:54.510Z,8.30
2022-11-03T16:59:25.674Z,6.20
2022-11-03T17:01:54.228Z,6.70
2022-11-03T17:04:22.804Z,8.00
2022-11-03T17:06:51.192Z,9.20
2022-11-03T17:09:20.343Z,8.30
2022-11-03T17:11:48.714Z,9.30
2022-11-03T17:14:17.191Z,8.70
2022-11-03T17:16:46.758Z,9.20
2022-11-03T17:19:15.872Z,7.60
2022-11-03T17:21:44.347Z,8.80
2022-11-03T17:24:13.329Z,9.00
2022-11-03T17:26:45.247Z,10.10
2022-11-03T17:29:18.229Z,9.10
2022-11-03T17:31:47.120Z,10.20
2022-11-03T17:34:17.369Z,9.40
2022-11-03T17:36:45.738Z,10.70
2022-11-03T17:39:16.642Z,10.30
2022-11-03T17:41:45.056Z,9.50
2022-11-03T17:44:13.772Z,10.60
2022-11-03T17:46:42.218Z,12.50
2022-11-03T17:49:10.551Z,11.20
2022-11-03T17:51:42.336Z,11.70
2022-11-03T17:54:14.800Z,10.80
2022-11-03T17:56:43.454Z,14.70
2022-11-03T17:59:16.284Z,13.90
2022-11-03T18:01:45.434Z,16.20
2022-11-03T18:06:48.450Z,13.70
2022-11-03T18:09:16.815Z,15.20
2022-11-03T18:12:03.864Z,15.70
2022-11-03T18:14:32.216Z,14.80
2022-11-03T18:17:01.061Z,15.70
2022-11-03T18:19:31.006Z,16.70
2022-11-03T18:21:59.522Z,15.80
2022-11-03T18:24:28.331Z,16.00
2022-11-03T18:26:56.723Z,15.40
2022-11-03T18:29:25.113Z,16.20
2022-11-03T18:31:53.581Z,15.70
2022-11-03T18:34:25.759Z,16.60
2022-11-03T18:36:55.312Z,18.60
2022-11-03T18:39:28.841Z,18.60
2022-11-03T18:41:57.272Z,17.30
2022-11-03T18:44:28.955Z,15.80
2022-11-03T18:46:58.673Z,16.90
2022-11-03T18:49:27.688Z,14.60
2022-11-03T18:52:03.848Z,14.40
2022-11-03T18:54:35.172Z,15.70
2022-11-03T18:57:04.250Z,14.70
2022-11-03T18:59:37.727Z,16.50
2022-11-03T19:02:26.340Z,15.10
2022-11-03T19:04:54.846Z,15.20
2022-11-03T19:07:31.483Z,15.80
2022-11-03T19:10:00.733Z,16.60
2022-11-03T19:12:29.268Z,18.60
2022-11-03T19:14:57.701Z,18.80
2022-11-03T19:17:26.445Z,21.30
2022-11-03T19:19:55.383Z,21.50
2022-11-03T19:22:24.044Z,21.60
2022-11-03T19:24:52.380Z,20.00
2022-11-03T19:27:30.030Z,19.90
2022-11-03T19:30:03.745Z,18.60
2022-11-03T19:32:41.698Z,16.70
2022-11-03T19:35:31.748Z,16.20
2022-11-03T19:38:16.599Z,17.00
2022-11-03T19:41:04.806Z,16.70
2022-11-03T19:43:35.010Z,16.90
2022-11-03T19:46:05.037Z,16.90
2022-11-03T19:48:34.366Z,16.70
2022-11-03T19:51:05.045Z,16.00
2022-11-03T19:53:34.098Z,16.40
2022-11-03T19:56:02.585Z,18.00
2022-11-03T19:58:30.915Z,18.20
2022-11-03T20:01:04.099Z,17.30
2022-11-03T20:03:34.187Z,17.80
2022-11-03T20:06:02.707Z,15.90
2022-11-03T20:08:33.780Z,18.50
2022-11-03T20:11:02.180Z,19.00
2022-11-03T20:13:40.695Z,17.90
2022-11-03T20:16:13.509Z,18.40
2022-11-03T20:18:43.389Z,16.30
2022-11-03T20:21:17.050Z,16.90
2022-11-03T20:23:48.360Z,16.20
2022-11-03T20:26:20.208Z,18.80
2022-11-03T20:28:49.096Z,16.50
2022-11-03T20:31:17.855Z,18.00
2022-11-03T20:33:46.209Z,16.30
2022-11-03T20:36:17.983Z,18.60
2022-11-03T20:38:59.245Z,18.30
2022-11-03T20:41:32.134Z,17.00
2022-11-03T20:44:00.534Z,14.60
2022-11-03T20:46:32.805Z,16.70
2022-11-03T20:49:01.487Z,18.60
2022-11-03T20:51:48.338Z,17.90
2022-11-03T20:54:21.717Z,18.80
2022-11-03T20:56:50.113Z,18.70
2022-11-03T20:59:21.306Z,17.60
2022-11-03T21:01:50.524Z,16.00
2022-11-03T21:04:21.105Z,17.30
2022-11-03T21:06:49.768Z,17.90
2022-11-03T21:09:18.876Z,17.60
2022-11-03T21:11:47.993Z,19.60
2022-11-03T21:14:25.999Z,17.90
2022-11-03T21:17:12.866Z,19.40
2022-11-03T21:20:02.244Z,19.30
2022-11-03T21:25:25.252Z,18.40
2022-11-03T21:27:54.848Z,18.00
2022-11-03T21:30:23.808Z,17.40
2022-11-03T21:32:52.379Z,17.30
2022-11-03T21:35:22.133Z,17.90
2022-11-03T21:37:50.601Z,17.40
2022-11-03T21:40:19.028Z,16.30
2022-11-03T21:43:07.241Z,16.00
2022-11-03T21:45:36.061Z,18.50
2022-11-03T21:48:23.800Z,17.20
2022-11-03T21:50:52.253Z,16.70
2022-11-03T21:53:20.698Z,17.40
2022-11-03T21:55:49.725Z,18.00
2022-11-03T21:58:18.078Z,16.40
2022-11-03T22:00:47.350Z,16.80
2022-11-03T22:03:15.899Z,16.90
2022-11-03T22:05:44.258Z,16.70
2022-11-03T22:08:12.698Z,17.40
2022-11-03T22:10:41.072Z,18.00
2022-11-03T22:13:10.034Z,20.10
2022-11-03T22:15:57.502Z,17.80
2022-11-03T22:18:25.901Z,16.00
2022-11-03T22:21:15.614Z,17.70
2022-11-03T22:24:02.469Z,16.80
2022-11-03T22:26:49.421Z,16.80
2022-11-03T22:29:36.193Z,16.70
2022-11-03T22:32:06.186Z,17.30
2022-11-03T22:34:53.087Z,15.10
2022-11-03T22:37:21.466Z,16.30
2022-11-03T22:40:08.242Z,16.00
2022-11-03T22:42:55.029Z,16.60
2022-11-03T22:45:41.998Z,19.10
2022-11-03T22:48:10.959Z,18.10
2022-11-03T22:50:39.664Z,18.80
2022-11-03T22:53:27.049Z,16.70
2022-11-03T22:55:55.454Z,17.10
2022-11-03T22:58:29.402Z,16.50
2022-11-03T23:01:04.073Z,16.80
2022-11-03T23:03:37.766Z,15.30
2022-11-03T23:06:16.091Z,15.70
2022-11-03T23:08:45.865Z,16.60
2022-11-03T23:11:17.813Z,15.90
2022-11-03T23:14:03.141Z,15.20
2022-11-03T23:16:41.002Z,16.60
2022-11-03T23:19:30.945Z,15.50
2022-11-03T23:22:00.096Z,15.00
2022-11-03T23:24:47.290Z,17.10
2022-11-03T23:27:15.667Z,14.90
2022-11-03T23:29:43.981Z,16.60
2022-11-03T23:32:12.308Z,18.30
2022-11-03T23:34:40.700Z,16.30
2022-11-03T23:37:09.034Z,15.20
2022-11-03T23:39:37.379Z,15.30
2022-11-03T23:42:06.064Z,18.20
2022-11-03T23:44:54.661Z,16.30
2022-11-03T23:47:41.728Z,17.90
2022-11-03T23:50:10.052Z,17.70
2022-11-03T23:52:38.431Z,18.80
2022-11-03T23:55:07.430Z,15.80
2022-11-03T23:57:54.137Z,16.70
